Time;durP1;ratioP1;P1;durP2;ratioP2;P2;SDS_P1;SDS_P2;PMS_P1;PMS_P2;Temp;Humidity;BMP_temperature;BMP_pressure;BME280_temperature;BME280_humidity;BME280_pressure;Samples;Min_cycle;Max_cycle;Signal;HPM_P1;HPM_P2
2022/07/13 00:09:26;;;;;;;1.30;1.20;;;;;;;14.98;89.47;98401.13;18504417;32;20097;-61
2022/07/13 00:19:28;;;;;;;3.13;0.80;;;;;;;14.82;90.09;98401.22;18489871;32;20432;-62
2022/07/13 00:29:30;;;;;;;0.80;0.70;;;;;;;14.65;90.51;98417.91;18503482;32;20457;-62
2022/07/13 00:39:33;;;;;;;2.27;1.00;;;;;;;14.47;90.82;98400.28;18488503;32;20086;-61
2022/07/13 00:49:36;;;;;;;1.87;0.80;;;;;;;14.35;91.27;98394.31;18499882;32;20112;-62
2022/07/13 00:59:39;;;;;;;1.40;0.90;;;;;;;14.23;92.58;98389.97;18501402;32;20037;-62
2022/07/13 01:09:41;;;;;;;2.07;0.80;;;;;;;14.14;92.79;98393.53;18500888;32;20158;-61
2022/07/13 01:19:45;;;;;;;1.00;0.80;;;;;;;14.03;93.04;98385.44;18500879;32;20089;-62
2022/07/13 01:29:47;;;;;;;1.37;1.00;;;;;;;13.96;93.22;98374.00;18499691;32;20064;-62
2022/07/13 01:39:50;;;;;;;1.80;1.00;;;;;;;13.84;93.79;98368.03;18499362;32;20087;-62
2022/07/13 01:49:52;;;;;;;1.80;1.10;;;;;;;13.70;93.84;98368.63;18498237;32;20384;-62
2022/07/13 02:00:19;;;;;;;2.33;1.00;;;;;;;13.59;94.47;98360.72;18497482;32;20061;-62
2022/07/13 02:10:34;;;;;;;1.33;0.90;;;;;;;13.51;95.06;98362.91;18492117;32;20053;-62
2022/07/13 02:20:38;;;;;;;2.23;1.10;;;;;;;13.45;95.40;98368.63;18496869;32;20104;-62
2022/07/13 02:30:40;;;;;;;1.40;0.90;;;;;;;13.39;96.01;98348.78;18495129;32;20068;-62
2022/07/13 02:40:42;;;;;;;1.20;1.03;;;;;;;13.34;96.50;98346.03;18495837;32;20104;-62
2022/07/13 02:50:45;;;;;;;1.77;1.40;;;;;;;13.27;96.71;98345.50;18495188;32;20045;-62
2022/07/13 03:00:47;;;;;;;2.40;1.27;;;;;;;13.22;97.26;98344.41;18495390;32;20041;-62
2022/07/13 03:10:49;;;;;;;1.83;1.20;;;;;;;13.15;97.49;98343.03;18502651;32;20444;-62
2022/07/13 03:20:51;;;;;;;4.10;1.07;;;;;;;13.03;97.33;98340.56;18493350;32;20053;-62
2022/07/13 03:30:53;;;;;;;2.90;1.17;;;;;;;13.01;97.88;98337.31;18507026;32;20120;-62
2022/07/13 03:40:56;;;;;;;1.97;1.00;;;;;;;12.94;98.40;98343.00;18492546;32;20090;-62
2022/07/13 03:50:58;;;;;;;4.73;1.30;;;;;;;12.91;98.52;98353.59;18504371;32;20112;-64
2022/07/13 04:01:00;;;;;;;1.40;1.13;;;;;;;12.85;98.40;98348.16;18505122;32;20094;-62
2022/07/13 04:11:03;;;;;;;1.37;1.10;;;;;;;12.83;98.81;98353.03;18477567;32;20049;-62
2022/07/13 04:21:07;;;;;;;1.67;1.10;;;;;;;12.85;98.98;98344.63;18502855;32;20072;-62
2022/07/13 04:31:09;;;;;;;1.05;0.95;;;;;;;12.89;98.53;98334.84;18503496;32;20126;-62
2022/07/13 04:41:12;;;;;;;2.07;1.37;;;;;;;13.02;97.80;98334.34;18502342;32;20110;-63
2022/07/13 04:51:14;;;;;;;2.60;1.30;;;;;;;13.29;98.40;98327.84;18487885;32;20097;-62
2022/07/13 05:01:17;;;;;;;1.33;0.93;;;;;;;13.71;98.45;98317.78;18501523;32;20105;-62
2022/07/13 05:11:27;;;;;;;1.77;1.20;;;;;;;14.06;96.74;98321.53;18500052;32;20147;-62
2022/07/13 05:21:29;;;;;;;1.60;1.20;;;;;;;14.38;95.94;98315.66;18486220;32;20428;-62
2022/07/13 05:31:31;;;;;;;1.83;1.30;;;;;;;14.77;94.65;98319.56;18485286;32;20041;-62
2022/07/13 05:41:34;;;;;;;4.00;1.17;;;;;;;15.15;93.23;98310.88;18499011;32;20053;-62
2022/07/13 05:51:36;;;;;;;1.27;1.17;;;;;;;15.56;91.39;98313.28;18498232;32;20040;-62
2022/07/13 06:01:39;;;;;;;1.40;1.05;;;;;;;16.02;90.42;98322.91;18496644;32;20076;-62
2022/07/13 06:11:41;;;;;;;1.60;1.02;;;;;;;16.48;88.70;98318.84;18482953;32;20067;-63
2022/07/13 06:21:44;;;;;;;2.85;1.48;;;;;;;17.09;89.06;98339.84;18496712;32;20425;-63
2022/07/13 06:31:48;;;;;;;3.95;3.15;;;;;;;17.79;81.87;98354.56;18496261;32;20108;-62
2022/07/13 06:41:50;;;;;;;3.53;2.83;;;;;;;18.65;71.94;98359.81;18495674;32;20049;-62
2022/07/13 06:51:55;;;;;;;7.32;2.42;;;;;;;19.36;70.13;98357.41;18481518;32;20389;-63
2022/07/13 07:01:57;;;;;;;3.55;2.00;;;;;;;19.98;66.05;98348.47;18495443;32;20057;-62
2022/07/13 07:12:00;;;;;;;2.73;1.30;;;;;;;20.63;63.92;98332.37;18495252;32;20049;-63
2022/07/13 07:22:03;;;;;;;2.03;1.40;;;;;;;21.32;65.75;98333.59;18480349;32;20065;-62
2022/07/13 07:32:05;;;;;;;1.55;1.25;;;;;;;21.88;60.68;98338.34;18494521;32;20102;-62
2022/07/13 07:42:08;;;;;;;2.58;1.27;;;;;;;22.42;57.45;98353.56;18494485;32;20053;-62
2022/07/13 07:52:11;;;;;;;2.50;1.10;;;;;;;22.97;56.56;98352.59;18494523;32;20333;-63
2022/07/13 08:02:34;;;;;;;;;;;;;;;23.51;55.67;98354.59;18505718;32;20079;-63
2022/07/13 08:12:37;;;;;;;1.80;0.90;;;;;;;24.02;50.42;98343.38;18504978;32;19968;-62
2022/07/13 08:22:43;;;;;;;1.23;0.90;;;;;;;24.40;47.54;98348.94;18490365;32;20045;-63
2022/07/13 08:32:46;;;;;;;1.50;0.93;;;;;;;24.93;48.64;98349.84;18503199;32;20053;-62
2022/07/13 08:42:51;;;;;;;3.53;1.00;;;;;;;25.44;47.00;98345.78;18502673;32;20048;-62
2022/07/13 08:52:54;;;;;;;1.67;1.02;;;;;;;25.76;46.21;98360.50;18501906;32;20064;-62
2022/07/13 09:02:58;;;;;;;1.15;0.93;;;;;;;26.26;42.75;98360.22;18486928;32;20059;-63
2022/07/13 09:13:01;;;;;;;1.27;0.82;;;;;;;26.10;41.75;98365.78;18500678;32;20128;-63
2022/07/13 09:23:06;;;;;;;2.78;1.08;;;;;;;26.58;43.54;98363.00;18486504;32;20093;-63
2022/07/13 09:33:10;;;;;;;1.10;0.90;;;;;;;26.84;40.83;98362.44;18485825;32;20314;-62
2022/07/13 09:53:36;;;;;;;2.10;1.37;;;;;;;27.82;38.85;98365.25;18498236;32;20056;-61
2022/07/13 10:03:40;;;;;;;1.00;0.70;;;;;;;28.05;39.45;98362.53;18497724;32;20108;-62
2022/07/13 10:13:48;;;;;;;1.98;0.90;;;;;;;28.37;38.15;98359.50;18497520;32;20061;-63
2022/07/13 10:23:52;;;;;;;1.77;1.00;;;;;;;28.83;39.80;98366.97;18482697;32;20049;-62
2022/07/13 10:33:57;;;;;;;1.05;0.70;;;;;;;29.23;38.35;98376.66;18482142;32;20098;-62
2022/07/13 10:44:32;;;;;;;0.98;0.70;;;;;;;29.66;37.76;98368.88;18468902;32;20394;-62
2022/07/13 10:54:36;;;;;;;0.88;0.60;;;;;;;29.96;34.72;98364.41;18481425;32;20053;-62
2022/07/13 11:04:50;;;;;;;1.48;0.70;;;;;;;30.33;35.86;98357.97;18480963;32;20353;-62
2022/07/13 11:14:54;;;;;;;1.02;0.77;;;;;;;30.74;35.12;98344.78;18480955;32;20159;-62
2022/07/13 11:25:14;;;;;;;2.40;0.68;;;;;;;31.05;31.24;98342.59;18493790;32;20079;-62
2022/07/13 11:35:17;;;;;;;0.73;0.40;;;;;;;31.37;32.40;98330.75;18506189;32;20053;-62
2022/07/13 11:45:26;;;;;;;1.10;0.52;;;;;;;31.95;30.00;98328.12;18492045;32;20045;-62
2022/07/13 11:55:30;;;;;;;0.60;0.45;;;;;;;32.42;27.69;98317.78;18491565;32;20053;-62
2022/07/13 12:05:34;;;;;;;0.90;0.43;;;;;;;32.93;27.26;98310.09;18490972;32;20104;-62
2022/07/13 12:15:37;;;;;;;1.23;0.50;;;;;;;33.04;25.36;98295.22;18490182;32;20045;-62
2022/07/13 12:25:40;;;;;;;1.10;0.55;;;;;;;33.42;27.51;98284.28;18504087;32;20422;-61
2022/07/13 12:35:42;;;;;;;0.70;0.60;;;;;;;33.59;21.44;98279.75;18503273;32;20098;-61
2022/07/13 12:45:52;;;;;;;0.77;0.40;;;;;;;33.72;23.88;98275.25;18502423;32;20087;-61
2022/07/13 12:55:56;;;;;;;1.92;0.35;;;;;;;34.21;26.08;98257.69;18501809;32;20057;-62
2022/07/13 13:05:59;;;;;;;0.30;0.30;;;;;;;34.84;21.74;98256.66;18501298;32;20049;-61
2022/07/13 13:16:03;;;;;;;1.08;0.60;;;;;;;34.91;17.93;98250.97;18500877;32;20066;-62
2022/07/13 13:26:07;;;;;;;1.02;0.55;;;;;;;35.23;23.19;98250.53;18500361;32;20045;-61
2022/07/13 13:36:29;;;;;;;1.62;0.70;;;;;;;35.73;22.29;98234.97;18499994;32;20479;-61
2022/07/13 13:46:32;;;;;;;2.03;0.68;;;;;;;36.19;26.29;98224.16;18484719;32;20409;-62
2022/07/13 13:56:34;;;;;;;1.00;0.60;;;;;;;36.44;22.39;98220.09;18483749;32;20079;-61
2022/07/13 14:06:37;;;;;;;0.40;0.40;;;;;;;37.18;23.18;98206.94;18497644;32;20072;-61
2022/07/13 14:16:40;;;;;;;1.12;0.70;;;;;;;37.64;24.99;98205.09;18497337;32;20057;-61
2022/07/13 14:26:43;;;;;;;0.65;0.45;;;;;;;38.62;25.05;98200.53;18496712;32;20463;-61
2022/07/13 14:36:55;;;;;;;0.70;0.50;;;;;;;37.66;28.42;98205.44;18483929;32;20091;-61
2022/07/13 14:46:58;;;;;;;0.65;0.32;;;;;;;37.43;24.27;98200.75;18496194;32;20048;-61
2022/07/13 14:57:02;;;;;;;0.50;0.30;;;;;;;37.59;24.35;98197.94;18481041;32;20061;-61
2022/07/13 15:07:06;;;;;;;0.50;0.40;;;;;;;37.06;18.50;98183.84;18502075;32;20091;-62
2022/07/13 15:17:09;;;;;;;0.45;0.22;;;;;;;35.23;22.23;98183.06;18508309;32;20045;-61
2022/07/13 15:27:15;;;;;;;0.57;0.20;;;;;;;34.28;26.37;98164.97;18507530;32;20045;-61
2022/07/13 15:37:19;;;;;;;0.77;0.30;;;;;;;33.78;21.02;98153.06;18506817;32;20064;-61
2022/07/13 15:47:21;;;;;;;0.55;0.30;;;;;;;33.24;26.80;98147.06;18505136;32;20145;-61
2022/07/13 15:57:24;;;;;;;0.43;0.20;;;;;;;33.55;32.63;98136.81;18505239;32;20065;-61
2022/07/13 16:07:26;;;;;;;0.70;0.30;;;;;;;33.63;37.63;98131.91;18490923;32;20044;-61
2022/07/13 16:17:29;;;;;;;0.60;0.20;;;;;;;32.97;41.08;98124.41;18504166;32;20049;-61
2022/07/13 16:27:32;;;;;;;0.40;0.20;;;;;;;32.13;44.12;98120.31;18503774;32;20064;-61
2022/07/13 16:37:34;;;;;;;0.40;0.22;;;;;;;31.37;45.65;98118.41;18488971;32;20057;-61
2022/07/13 16:47:37;;;;;;;1.27;0.40;;;;;;;30.34;47.42;98114.91;18502653;32;20330;-61
2022/07/13 16:57:40;;;;;;;0.55;0.20;;;;;;;29.47;50.65;98112.75;18501944;32;20049;-61
2022/07/13 17:07:43;;;;;;;1.25;0.30;;;;;;;28.71;52.19;98106.41;18501269;32;20053;-61
2022/07/13 17:17:45;;;;;;;0.22;0.20;;;;;;;28.14;52.66;98106.53;18500700;32;20104;-61
2022/07/13 17:27:48;;;;;;;0.52;0.20;;;;;;;27.76;54.74;98103.56;18499567;32;20053;-61
2022/07/13 17:37:50;;;;;;;0.60;0.30;;;;;;;27.44;58.17;98111.41;18499482;32;20083;-61
2022/07/13 17:47:54;;;;;;;0.20;0.20;;;;;;;27.07;58.89;98106.41;18498718;32;20093;-61
2022/07/13 17:57:56;;;;;;;0.57;0.32;;;;;;;26.86;58.86;98113.97;18498185;32;20045;-61
2022/07/13 18:07:59;;;;;;;0.47;0.20;;;;;;;26.54;58.14;98107.75;18483493;32;20045;-62
2022/07/13 18:18:02;;;;;;;1.87;0.10;;;;;;;26.21;61.66;98120.94;18496225;32;20438;-61
2022/07/13 18:28:04;;;;;;;0.35;0.25;;;;;;;25.92;62.91;98124.25;18496819;32;20071;-61
2022/07/13 18:38:07;;;;;;;1.05;0.40;;;;;;;25.62;64.38;98108.91;18495899;32;20086;-61
2022/07/13 18:48:10;;;;;;;2.40;0.50;;;;;;;25.27;63.86;98114.34;18481844;32;20444;-61
2022/07/13 18:58:13;;;;;;;1.25;0.65;;;;;;;24.82;63.99;98117.19;18429930;32;20089;-61
2022/07/13 19:08:15;;;;;;;1.05;0.40;;;;;;;24.29;63.25;98108.97;18429344;32;20058;-61
2022/07/13 19:18:18;;;;;;;0.50;0.35;;;;;;;23.64;63.98;98107.00;18430781;32;20070;-61
2022/07/13 19:28:21;;;;;;;2.67;0.88;;;;;;;23.05;62.31;98094.41;18428997;32;20053;-61
2022/07/13 19:38:23;;;;;;;0.60;0.60;;;;;;;22.60;61.37;98106.25;18416098;32;20054;-62
2022/07/13 19:48:28;;;;;;;0.85;0.28;;;;;;;22.32;61.70;98118.63;18431406;32;20143;-61
2022/07/13 19:58:38;;;;;;;0.52;0.30;;;;;;;22.16;62.57;98134.94;18502445;32;20053;-61
2022/07/13 20:08:40;;;;;;;0.80;0.50;;;;;;;22.05;61.47;98146.66;18505055;32;20053;-61
2022/07/13 20:18:43;;;;;;;0.27;0.23;;;;;;;21.96;62.00;98155.00;18504484;32;20108;-62
2022/07/13 20:28:47;;;;;;;0.43;0.40;;;;;;;21.80;63.80;98171.25;18504016;32;20459;-62
2022/07/13 20:38:49;;;;;;;0.35;0.25;;;;;;;21.72;62.87;98170.19;18503421;32;20091;-61
2022/07/13 20:48:52;;;;;;;0.30;0.22;;;;;;;21.71;62.90;98156.75;18488625;32;20115;-62
2022/07/13 20:58:54;;;;;;;0.20;0.20;;;;;;;21.70;63.56;98164.19;18487801;32;20053;-62
2022/07/13 21:08:57;;;;;;;0.57;0.40;;;;;;;21.69;61.23;98170.84;18487537;32;20045;-62
2022/07/13 21:18:59;;;;;;;1.00;0.60;;;;;;;21.64;61.95;98168.28;18486778;32;20138;-63
2022/07/13 21:29:02;;;;;;;1.13;0.60;;;;;;;21.53;62.01;98170.59;18500169;32;20075;-62
2022/07/13 21:39:04;;;;;;;0.60;0.30;;;;;;;21.49;59.94;98161.38;18499675;32;20049;-62
2022/07/13 21:49:06;;;;;;;0.60;0.40;;;;;;;21.42;58.79;98166.56;18498481;32;20119;-62
2022/07/13 21:59:09;;;;;;;0.27;0.27;;;;;;;21.36;58.75;98187.94;18484333;32;20065;-62
2022/07/13 22:09:11;;;;;;;0.90;0.50;;;;;;;21.23;60.13;98166.97;18483583;32;20360;-62
2022/07/13 22:19:51;;;;;;;3.10;0.53;;;;;;;21.13;61.10;98148.84;18497070;32;20485;-62
2022/07/13 22:30:32;;;;;;;0.70;0.40;;;;;;;21.11;61.28;98137.38;18496780;32;20412;-62
2022/07/13 22:41:12;;;;;;;0.95;0.40;;;;;;;21.13;61.98;98154.34;18496240;32;20383;-62
2022/07/13 22:51:53;;;;;;;0.85;0.32;;;;;;;20.97;63.39;98163.13;18495715;32;20436;-62
2022/07/13 23:02:34;;;;;;;2.75;0.60;;;;;;;20.79;65.85;98164.31;18495730;32;20065;-62
2022/07/13 23:13:14;;;;;;;1.00;0.43;;;;;;;20.67;66.72;98194.34;18495214;32;20068;-61
2022/07/13 23:23:54;;;;;;;0.90;0.60;;;;;;;20.59;62.96;98188.53;18496991;32;20052;-62
2022/07/13 23:33:57;;;;;;;1.30;0.50;;;;;;;20.48;64.21;98176.25;18507719;32;20093;-62
2022/07/13 23:44:02;;;;;;;1.05;0.40;;;;;;;20.43;65.14;98168.16;18492480;32;20059;-62
2022/07/13 23:54:04;;;;;;;1.60;0.50;;;;;;;20.28;69.12;98150.22;18504893;32;20433;-62
